createdAt,value
2018-02-11T00:02:23.950Z,1.64
2018-02-11T00:04:52.741Z,1.63
2018-02-11T00:07:21.244Z,1.58
2018-02-11T00:09:50.208Z,1.58
2018-02-11T00:12:18.732Z,1.61
2018-02-11T00:14:47.504Z,1.65
2018-02-11T00:17:16.073Z,1.64
2018-02-11T00:19:45.102Z,1.59
2018-02-11T00:22:13.800Z,1.69
2018-02-11T00:24:42.282Z,1.56
2018-02-11T00:27:10.768Z,1.57
2018-02-11T00:29:39.301Z,1.63
2018-02-11T00:32:07.817Z,1.68
2018-02-11T00:34:37.564Z,1.63
2018-02-11T00:37:07.926Z,1.59
2018-02-11T00:39:37.943Z,1.52
2018-02-11T00:42:06.995Z,1.58
2018-02-11T00:44:36.874Z,1.62
2018-02-11T00:47:06.128Z,1.56
2018-02-11T00:49:34.935Z,1.60
2018-02-11T00:52:04.302Z,1.53
2018-02-11T00:54:32.901Z,1.51
2018-02-11T00:57:01.404Z,1.56
2018-02-11T00:59:30.577Z,1.45
2018-02-11T01:01:59.524Z,1.43
2018-02-11T01:04:28.504Z,1.43
2018-02-11T01:06:58.048Z,1.46
2018-02-11T01:09:26.776Z,1.44
2018-02-11T01:11:55.337Z,1.55
2018-02-11T01:14:23.812Z,1.49
2018-02-11T01:16:52.473Z,1.49
2018-02-11T01:19:21.009Z,1.57
2018-02-11T01:21:49.515Z,1.55
2018-02-11T01:24:18.205Z,1.53
2018-02-11T01:26:46.800Z,1.53
2018-02-11T01:29:15.283Z,1.53
2018-02-11T01:31:43.777Z,1.47
2018-02-11T01:34:12.288Z,1.59
2018-02-11T01:36:41.145Z,1.55
2018-02-11T01:39:09.635Z,1.55
2018-02-11T01:41:38.156Z,1.57
2018-02-11T01:44:07.584Z,1.51
2018-02-11T01:46:36.364Z,1.55
2018-02-11T01:49:04.936Z,1.59
2018-02-11T01:51:33.664Z,1.56
2018-02-11T01:54:02.155Z,1.63
2018-02-11T01:56:31.473Z,1.51
2018-02-11T01:59:00.325Z,1.50
2018-02-11T02:01:29.222Z,1.41
2018-02-11T02:03:59.202Z,1.34
2018-02-11T02:06:27.894Z,1.38
2018-02-11T02:08:56.481Z,1.32
2018-02-11T02:11:24.984Z,1.34
2018-02-11T02:13:53.840Z,1.35
2018-02-11T02:16:22.628Z,1.33
2018-02-11T02:18:51.141Z,1.32
2018-02-11T02:21:19.652Z,1.30
2018-02-11T02:23:48.204Z,1.31
2018-02-11T02:26:16.760Z,1.25
2018-02-11T02:28:45.487Z,1.28
2018-02-11T02:31:13.976Z,1.32
2018-02-11T02:33:42.521Z,1.27
2018-02-11T02:36:11.029Z,1.33
2018-02-11T02:38:39.484Z,1.29
2018-02-11T02:41:11.200Z,1.27
2018-02-11T02:43:39.826Z,1.28
2018-02-11T02:46:08.452Z,1.22
2018-02-11T02:48:36.988Z,1.29
2018-02-11T02:51:05.543Z,1.37
2018-02-11T02:53:34.132Z,1.41
2018-02-11T02:56:02.996Z,1.06
2018-02-11T02:58:31.509Z,1.20
2018-02-11T03:01:00.075Z,1.19
2018-02-11T03:03:28.570Z,1.31
2018-02-11T03:05:57.191Z,1.36
2018-02-11T03:08:25.729Z,1.32
2018-02-11T03:10:54.323Z,1.34
2018-02-11T03:13:22.823Z,1.34
2018-02-11T03:15:51.517Z,1.25
2018-02-11T03:18:20.122Z,1.31
2018-02-11T03:20:49.405Z,1.33
2018-02-11T03:23:17.980Z,1.34
2018-02-11T03:25:46.685Z,1.36
2018-02-11T03:28:15.524Z,1.41
2018-02-11T03:30:47.713Z,1.37
2018-02-11T03:33:22.268Z,1.39
2018-02-11T03:35:50.811Z,1.36
2018-02-11T03:38:22.369Z,1.35
2018-02-11T03:40:51.066Z,1.37
2018-02-11T03:43:19.722Z,1.29
2018-02-11T03:45:48.240Z,1.37
2018-02-11T03:48:16.700Z,1.27
2018-02-11T03:50:45.221Z,1.24
2018-02-11T03:53:13.848Z,1.19
2018-02-11T03:55:42.583Z,1.21
2018-02-11T03:58:11.231Z,1.11
2018-02-11T04:00:39.748Z,1.17
2018-02-11T04:03:08.290Z,1.12
2018-02-11T04:05:36.822Z,1.14
2018-02-11T04:08:05.320Z,1.07
2018-02-11T04:10:34.822Z,1.11
2018-02-11T04:13:03.766Z,1.03
2018-02-11T04:15:32.800Z,1.01
2018-02-11T04:18:01.750Z,1.03
2018-02-11T04:20:30.358Z,1.05
2018-02-11T04:22:59.332Z,1.08
2018-02-11T04:25:27.830Z,1.12
2018-02-11T04:27:56.291Z,1.08
2018-02-11T04:30:24.781Z,1.10
2018-02-11T04:32:53.280Z,1.17
2018-02-11T04:35:21.804Z,1.16
2018-02-11T04:37:50.605Z,1.21
2018-02-11T04:40:19.104Z,1.25
2018-02-11T04:42:47.584Z,1.35
2018-02-11T04:45:16.285Z,1.31
2018-02-11T04:47:47.693Z,1.29
2018-02-11T04:50:16.590Z,1.38
2018-02-11T04:52:45.471Z,1.38
2018-02-11T04:55:14.101Z,1.36
2018-02-11T04:57:42.573Z,1.36
2018-02-11T05:06:02.218Z,1.46
2018-02-11T05:08:30.744Z,1.47
2018-02-11T05:10:59.251Z,1.25
2018-02-11T05:13:27.768Z,1.47
2018-02-11T05:15:56.310Z,1.47
2018-02-11T05:18:24.956Z,1.53
2018-02-11T05:20:53.598Z,1.55
2018-02-11T05:23:22.305Z,1.56
2018-02-11T05:25:51.375Z,1.53
2018-02-11T05:28:20.063Z,1.56
2018-02-11T05:30:48.955Z,1.55
2018-02-11T05:33:17.435Z,1.49
2018-02-11T05:35:46.112Z,1.52
2018-02-11T05:38:14.660Z,1.57
2018-02-11T05:40:43.280Z,1.59
2018-02-11T05:43:11.809Z,1.58
2018-02-11T05:45:42.594Z,1.59
2018-02-11T05:48:13.779Z,1.56
2018-02-11T05:50:42.094Z,1.57
2018-02-11T05:53:10.362Z,1.58
2018-02-11T05:55:38.714Z,1.58
2018-02-11T05:58:07.022Z,1.59
2018-02-11T06:00:35.570Z,1.63
2018-02-11T06:03:03.831Z,1.62
2018-02-11T06:05:32.157Z,1.65
2018-02-11T06:08:00.439Z,1.68
2018-02-11T06:10:28.846Z,1.72
2018-02-11T06:12:57.126Z,1.72
2018-02-11T06:15:25.486Z,1.77
2018-02-11T06:17:53.892Z,1.73
2018-02-11T06:20:22.211Z,1.76
2018-02-11T06:22:50.603Z,1.69
2018-02-11T06:25:18.949Z,1.70
2018-02-11T06:27:47.377Z,1.72
2018-02-11T06:30:15.667Z,1.72
2018-02-11T06:32:44.143Z,1.71
2018-02-11T06:35:12.450Z,1.72
2018-02-11T06:37:40.727Z,1.73
2018-02-11T06:40:09.191Z,1.69
2018-02-11T06:42:37.481Z,1.74
2018-02-11T06:45:05.826Z,1.76
2018-02-11T06:47:34.151Z,1.73
2018-02-11T06:50:02.495Z,1.77
2018-02-11T06:52:30.822Z,1.74
2018-02-11T06:54:59.089Z,1.76
2018-02-11T06:57:27.451Z,1.74
2018-02-11T06:59:55.744Z,1.68
2018-02-11T07:02:24.253Z,1.68
2018-02-11T07:04:52.587Z,1.70
2018-02-11T07:07:20.920Z,1.68
2018-02-11T07:09:49.191Z,1.72
2018-02-11T07:12:17.706Z,1.72
2018-02-11T07:14:46.015Z,1.77
2018-02-11T07:17:14.468Z,1.78
2018-02-11T07:19:42.747Z,1.88
2018-02-11T07:22:11.138Z,1.99
2018-02-11T07:24:39.641Z,2.01
2018-02-11T07:27:07.982Z,2.13
2018-02-11T07:29:36.259Z,2.18
2018-02-11T07:32:04.579Z,2.21
2018-02-11T07:34:32.885Z,2.24
2018-02-11T07:37:01.265Z,2.28
2018-02-11T07:39:29.551Z,2.32
2018-02-11T07:41:57.899Z,2.31
2018-02-11T07:44:26.257Z,2.31
2018-02-11T07:46:54.613Z,2.21
2018-02-11T07:49:23.102Z,2.23
2018-02-11T07:51:51.597Z,2.24
2018-02-11T07:54:19.891Z,2.18
2018-02-11T07:56:48.278Z,2.13
2018-02-11T07:59:16.775Z,2.16
2018-02-11T08:01:45.095Z,2.17
2018-02-11T08:04:13.402Z,2.11
2018-02-11T08:06:41.960Z,2.13
2018-02-11T08:09:10.472Z,2.10
2018-02-11T08:11:39.053Z,2.06
2018-02-11T08:14:07.566Z,2.07
2018-02-11T08:16:36.183Z,2.05
2018-02-11T08:19:04.490Z,2.09
2018-02-11T08:21:33.190Z,2.13
2018-02-11T08:24:01.730Z,2.26
2018-02-11T08:26:30.084Z,2.24
2018-02-11T08:29:01.184Z,2.38
2018-02-11T08:31:29.627Z,2.61
2018-02-11T08:33:59.288Z,2.76
2018-02-11T08:36:28.094Z,2.98
2018-02-11T08:38:57.891Z,3.08
2018-02-11T08:41:26.405Z,3.18
2018-02-11T08:43:54.712Z,2.99
2018-02-11T08:46:23.088Z,3.05
2018-02-11T08:48:51.954Z,3.03
2018-02-11T08:51:20.619Z,3.01
2018-02-11T08:53:49.523Z,3.19
2018-02-11T08:56:17.905Z,3.11
2018-02-11T08:58:46.268Z,3.26
2018-02-11T09:01:14.876Z,3.21
2018-02-11T09:03:43.188Z,3.26
2018-02-11T09:06:12.714Z,3.47
2018-02-11T09:08:41.050Z,3.44
2018-02-11T09:11:10.464Z,3.48
2018-02-11T09:13:39.020Z,3.51
2018-02-11T09:16:07.349Z,3.57
2018-02-11T09:18:35.633Z,3.58
2018-02-11T09:21:05.146Z,3.67
2018-02-11T09:23:33.430Z,3.88
2018-02-11T09:26:02.143Z,3.85
2018-02-11T09:28:30.991Z,3.96
2018-02-11T09:31:00.536Z,4.24
2018-02-11T09:33:29.432Z,4.20
2018-02-11T09:35:58.027Z,4.21
2018-02-11T09:38:26.568Z,4.21
2018-02-11T09:40:55.059Z,4.07
2018-02-11T09:43:23.508Z,3.98
2018-02-11T09:45:51.834Z,4.06
2018-02-11T09:48:20.155Z,4.08
2018-02-11T09:50:48.457Z,4.09
2018-02-11T09:53:16.762Z,3.99
2018-02-11T09:55:45.071Z,4.13
2018-02-11T09:58:13.364Z,4.23
2018-02-11T10:00:41.676Z,4.29
2018-02-11T10:03:09.992Z,4.31
2018-02-11T10:05:38.355Z,4.46
2018-02-11T10:08:06.689Z,4.75
2018-02-11T10:10:35.171Z,4.92
2018-02-11T10:13:03.735Z,4.97
2018-02-11T10:15:34.317Z,5.02
2018-02-11T10:18:02.619Z,4.97
2018-02-11T10:20:30.952Z,5.18
2018-02-11T10:22:59.247Z,4.93
2018-02-11T10:25:27.727Z,4.99
2018-02-11T10:27:56.014Z,4.89
2018-02-11T10:30:24.446Z,5.21
2018-02-11T10:32:52.711Z,4.78
2018-02-11T10:35:21.206Z,4.83
2018-02-11T10:37:49.550Z,4.94
2018-02-11T10:40:17.855Z,5.01
2018-02-11T10:42:46.221Z,4.87
2018-02-11T10:45:14.519Z,5.03
2018-02-11T10:47:42.998Z,4.96
2018-02-11T10:50:11.317Z,4.76
2018-02-11T10:52:39.605Z,4.76
2018-02-11T10:55:08.912Z,4.74
2018-02-11T10:57:37.236Z,4.68
2018-02-11T11:00:05.603Z,4.69
2018-02-11T11:02:33.904Z,4.45
2018-02-11T11:05:02.409Z,4.48
2018-02-11T11:08:33.834Z,4.20
2018-02-11T11:11:02.342Z,4.30
2018-02-11T11:13:30.609Z,4.23
2018-02-11T11:15:58.918Z,4.22
2018-02-11T11:18:27.161Z,4.28
2018-02-11T11:20:55.565Z,4.13
2018-02-11T11:23:23.896Z,4.02
2018-02-11T11:25:52.334Z,4.05
2018-02-11T11:28:20.662Z,4.08
2018-02-11T11:30:48.974Z,4.04
2018-02-11T11:33:17.316Z,4.43
2018-02-11T11:35:45.621Z,4.21
2018-02-11T11:38:13.955Z,4.25
2018-02-11T11:40:42.404Z,4.18
2018-02-11T11:43:10.724Z,4.24
2018-02-11T11:45:39.046Z,4.22
2018-02-11T11:48:07.362Z,4.21
2018-02-11T11:50:35.649Z,4.34
2018-02-11T11:53:03.903Z,4.13
2018-02-11T11:55:32.440Z,4.21
2018-02-11T11:58:00.727Z,4.22
2018-02-11T12:00:29.013Z,4.27
2018-02-11T12:02:57.726Z,4.37
2018-02-11T12:05:26.049Z,4.19
2018-02-11T12:07:54.570Z,4.28
2018-02-11T12:10:22.872Z,4.14
2018-02-11T12:12:51.267Z,4.07
2018-02-11T12:15:21.813Z,4.27
2018-02-11T12:17:54.949Z,4.36
2018-02-11T12:20:23.787Z,4.29
2018-02-11T12:22:52.685Z,4.22
2018-02-11T12:25:21.065Z,4.00
2018-02-11T12:27:49.364Z,4.05
2018-02-11T12:30:17.659Z,3.87
2018-02-11T12:32:45.959Z,3.68
2018-02-11T12:35:14.446Z,3.63
2018-02-11T12:37:42.886Z,3.61
2018-02-11T12:40:11.209Z,3.49
2018-02-11T12:42:39.678Z,3.36
2018-02-11T12:45:08.635Z,3.24
2018-02-11T12:47:36.942Z,3.21
2018-02-11T12:50:05.255Z,3.39
2018-02-11T12:52:33.546Z,3.24
2018-02-11T12:55:01.813Z,3.31
2018-02-11T12:57:30.380Z,2.96
2018-02-11T12:59:58.666Z,3.12
2018-02-11T13:02:27.025Z,3.35
2018-02-11T13:04:56.693Z,3.23
2018-02-11T13:07:25.750Z,3.15
2018-02-11T13:09:54.540Z,3.18
2018-02-11T13:12:23.122Z,3.14
2018-02-11T13:14:51.404Z,3.29
2018-02-11T13:17:19.778Z,3.22
2018-02-11T13:19:50.676Z,3.13
2018-02-11T13:22:21.101Z,3.05
2018-02-11T13:24:50.124Z,3.03
2018-02-11T13:27:18.994Z,3.11
2018-02-11T13:29:48.274Z,2.90
2018-02-11T13:32:16.746Z,3.05
2018-02-11T13:34:45.740Z,2.83
2018-02-11T13:37:14.824Z,2.79
2018-02-11T13:39:44.011Z,2.90
2018-02-11T13:42:12.665Z,2.83
2018-02-11T13:44:40.995Z,2.87
2018-02-11T13:47:12.220Z,2.79
2018-02-11T13:49:42.808Z,2.71
2018-02-11T13:52:11.203Z,2.79
2018-02-11T13:54:39.569Z,2.72
2018-02-11T13:57:08.016Z,2.68
2018-02-11T13:59:36.387Z,2.63
2018-02-11T14:02:06.008Z,2.62
2018-02-11T14:04:35.442Z,2.55
2018-02-11T14:07:03.796Z,2.57
2018-02-11T14:09:36.704Z,2.68
2018-02-11T14:12:05.330Z,2.52
2018-02-11T14:14:34.260Z,2.50
2018-02-11T14:17:02.790Z,2.58
2018-02-11T14:19:31.996Z,2.64
2018-02-11T14:22:00.523Z,2.55
2018-02-11T14:24:28.839Z,2.53
2018-02-11T14:26:57.578Z,2.57
2018-02-11T14:29:26.071Z,2.44
2018-02-11T14:31:55.281Z,2.31
2018-02-11T14:34:23.922Z,2.44
2018-02-11T14:37:05.644Z,2.34
2018-02-11T14:48:56.438Z,2.23
2018-02-11T14:51:25.034Z,2.23
2018-02-11T14:54:01.588Z,2.26
2018-02-11T14:56:57.170Z,2.22
2018-02-11T15:03:08.885Z,2.21
2018-02-11T15:10:50.246Z,2.13
2018-02-11T15:16:27.256Z,2.35
2018-02-11T15:19:06.044Z,2.38
2018-02-11T15:21:34.780Z,2.42
2018-02-11T21:56:43.199Z,1.66
2018-02-11T21:59:11.314Z,1.37
2018-02-11T22:01:39.759Z,1.41
2018-02-11T22:04:08.055Z,1.32
2018-02-11T22:06:36.347Z,1.27
2018-02-11T22:09:05.066Z,1.14
2018-02-11T22:11:33.450Z,1.10
2018-02-11T22:14:01.922Z,1.21
2018-02-11T22:16:32.120Z,1.23
2018-02-11T22:19:01.039Z,1.32
2018-02-11T22:21:29.375Z,1.32
2018-02-11T22:23:57.846Z,1.10
2018-02-11T22:26:26.410Z,1.29
2018-02-11T22:29:00.290Z,1.37
2018-02-11T22:31:32.147Z,1.55
2018-02-11T22:34:00.899Z,1.51
2018-02-11T22:36:29.849Z,1.45
2018-02-11T22:38:59.344Z,1.45
2018-02-11T22:41:28.014Z,1.48
2018-02-11T22:43:57.925Z,1.42
2018-02-11T22:46:26.375Z,1.03
2018-02-11T22:48:55.510Z,1.03
2018-02-11T22:51:30.434Z,0.90
2018-02-11T22:53:58.745Z,0.75
2018-02-11T22:56:27.561Z,0.93
2018-02-11T23:01:24.295Z,0.76
2018-02-11T23:03:52.932Z,0.63
2018-02-11T23:06:21.417Z,0.52
2018-02-11T23:08:49.689Z,0.58
2018-02-11T23:11:18.010Z,0.66
2018-02-11T23:13:46.418Z,0.81
2018-02-11T23:16:14.878Z,0.67
2018-02-11T23:18:43.171Z,0.66
2018-02-11T23:21:11.488Z,0.70
2018-02-11T23:23:40.008Z,0.85
2018-02-11T23:26:08.317Z,0.99
2018-02-11T23:28:36.906Z,0.91
2018-02-11T23:31:05.330Z,0.62
2018-02-11T23:33:33.851Z,0.81
2018-02-11T23:36:02.151Z,0.63
2018-02-11T23:38:31.023Z,0.68
2018-02-11T23:40:59.529Z,0.60
2018-02-11T23:43:27.938Z,0.56
2018-02-11T23:45:56.430Z,0.56
2018-02-11T23:48:24.780Z,0.85
2018-02-11T23:50:54.424Z,0.77
2018-02-11T23:53:24.258Z,0.65
2018-02-11T23:55:52.742Z,0.71
2018-02-11T23:58:21.354Z,0.68
